HAKGR EDNY-LEBB
Flight info
| Callsign | HAKGR |
|---|---|
| Flight time | 3h 3m |
| Altitude | 24000 |
| Route | TRA Z69 OLBEN N869 NINTU DCT DEPUL T544 LSE UY305 ESIDA DCT NARAK DCT ERAKI N976 PPN M601 CEGAM |
| Aircraft | B350/L-SBGR/C |
Departure
| Time | 2026-04-27 16:31 |
|---|---|
| Airport | Bodensee Airport Friedrichshafen (EDNY) |
Arrival
| Time | 2026-04-27 19:34 |
|---|---|
| Airport | Bilbao Airport (LEBB) |
| Time | Latitude | Longitude | Altitude | Speed | Heading |
|---|---|---|---|---|---|
| 2026-04-27 16:09 | 47.67216 | 9.52003 | 1362 ft | 0 kts | 220° |
| 2026-04-27 16:25 | 47.67214 | 9.51997 | 1362 ft | 3 kts | 258° |
| 2026-04-27 16:25 | 47.67201 | 9.51801 | 1360 ft | 20 kts | 241° |
| 2026-04-27 16:26 | 47.67052 | 9.51419 | 1355 ft | 10 kts | 242° |
| 2026-04-27 16:26 | 47.66932 | 9.51110 | 1349 ft | 25 kts | 240° |
| 2026-04-27 16:27 | 47.66775 | 9.50703 | 1346 ft | 11 kts | 239° |
| 2026-04-27 16:27 | 47.66828 | 9.50624 | 1348 ft | 0 kts | 31° |
| 2026-04-27 16:28 | 47.66952 | 9.50721 | 1345 ft | 14 kts | 26° |
| 2026-04-27 16:29 | 47.66977 | 9.50746 | 1347 ft | 0 kts | 59° |
| 2026-04-27 16:30 | 47.67335 | 9.51663 | 1357 ft | 100 kts | 59° |
| 2026-04-27 16:30 | 47.68163 | 9.53871 | 1770 ft | 137 kts | 59° |
| 2026-04-27 16:31 | 47.69728 | 9.57878 | 2998 ft | 160 kts | 62° |
| 2026-04-27 16:31 | 47.71377 | 9.60006 | 3559 ft | 180 kts | 359° |
| 2026-04-27 16:32 | 47.73347 | 9.57720 | 4100 ft | 186 kts | 313° |
| 2026-04-27 16:32 | 47.74158 | 9.56213 | 4447 ft | 186 kts | 311° |
| 2026-04-27 16:33 | 47.75837 | 9.53162 | 4997 ft | 194 kts | 313° |
| 2026-04-27 16:33 | 47.76751 | 9.51668 | 5225 ft | 198 kts | 315° |
| 2026-04-27 16:33 | 47.77723 | 9.50171 | 5328 ft | 205 kts | 317° |
| 2026-04-27 16:33 | 47.78709 | 9.48587 | 5399 ft | 209 kts | 310° |
| 2026-04-27 16:34 | 47.79592 | 9.46933 | 5786 ft | 199 kts | 308° |
| 2026-04-27 16:34 | 47.80107 | 9.45083 | 6172 ft | 193 kts | 281° |
| 2026-04-27 16:34 | 47.80311 | 9.43120 | 6551 ft | 191 kts | 280° |
| 2026-04-27 16:34 | 47.80517 | 9.41179 | 6907 ft | 189 kts | 280° |
| 2026-04-27 16:35 | 47.80725 | 9.39241 | 7227 ft | 192 kts | 279° |
| 2026-04-27 16:35 | 47.80938 | 9.37246 | 7477 ft | 197 kts | 280° |
| 2026-04-27 16:35 | 47.81370 | 9.33197 | 7991 ft | 200 kts | 279° |
| 2026-04-27 16:36 | 47.81589 | 9.31138 | 8241 ft | 203 kts | 279° |
| 2026-04-27 16:36 | 47.81810 | 9.29055 | 8497 ft | 204 kts | 279° |
| 2026-04-27 16:36 | 47.82033 | 9.26953 | 8755 ft | 207 kts | 279° |
| 2026-04-27 16:36 | 47.82256 | 9.24846 | 9017 ft | 206 kts | 279° |
| 2026-04-27 16:37 | 47.82479 | 9.22735 | 9276 ft | 207 kts | 279° |
| 2026-04-27 16:37 | 47.82700 | 9.20640 | 9540 ft | 208 kts | 279° |
| 2026-04-27 16:37 | 47.82924 | 9.18513 | 9800 ft | 209 kts | 279° |
| 2026-04-27 16:37 | 47.83149 | 9.16369 | 10062 ft | 210 kts | 278° |
| 2026-04-27 16:38 | 47.83374 | 9.14220 | 10306 ft | 210 kts | 279° |
| 2026-04-27 16:38 | 47.83379 | 9.12074 | 10545 ft | 209 kts | 255° |
| 2026-04-27 16:38 | 47.82953 | 9.10008 | 10793 ft | 210 kts | 254° |
| 2026-04-27 16:38 | 47.82516 | 9.07918 | 11039 ft | 212 kts | 253° |
| 2026-04-27 16:39 | 47.82078 | 9.05822 | 11286 ft | 213 kts | 253° |
| 2026-04-27 16:39 | 47.81637 | 9.03704 | 11534 ft | 214 kts | 253° |
| 2026-04-27 16:39 | 47.81201 | 9.01609 | 11786 ft | 215 kts | 254° |
| 2026-04-27 16:39 | 47.80757 | 8.99482 | 12038 ft | 215 kts | 254° |
| 2026-04-27 16:40 | 47.80310 | 8.97341 | 12179 ft | 222 kts | 254° |
| 2026-04-27 16:40 | 47.79839 | 8.95086 | 12143 ft | 232 kts | 254° |
| 2026-04-27 16:40 | 47.79358 | 8.92790 | 12263 ft | 232 kts | 254° |
| 2026-04-27 16:40 | 47.78880 | 8.90511 | 12452 ft | 229 kts | 253° |
| 2026-04-27 16:41 | 47.78409 | 8.88271 | 12733 ft | 225 kts | 254° |
| 2026-04-27 16:41 | 47.77944 | 8.86056 | 13012 ft | 223 kts | 253° |
| 2026-04-27 16:41 | 47.77482 | 8.83861 | 13294 ft | 221 kts | 253° |
| 2026-04-27 16:41 | 47.77028 | 8.81705 | 13577 ft | 221 kts | 254° |
| 2026-04-27 16:42 | 47.76571 | 8.79535 | 13863 ft | 220 kts | 254° |
| 2026-04-27 16:42 | 47.76115 | 8.77375 | 14127 ft | 218 kts | 254° |
| 2026-04-27 16:42 | 47.75664 | 8.75239 | 14379 ft | 215 kts | 254° |
| 2026-04-27 16:42 | 47.75217 | 8.73128 | 14636 ft | 212 kts | 254° |
| 2026-04-27 16:43 | 47.74777 | 8.71046 | 14895 ft | 210 kts | 254° |
| 2026-04-27 16:43 | 47.74341 | 8.68992 | 15155 ft | 207 kts | 255° |
| 2026-04-27 16:43 | 47.73909 | 8.66955 | 15417 ft | 205 kts | 255° |
| 2026-04-27 16:43 | 47.73482 | 8.64941 | 15682 ft | 204 kts | 255° |
| 2026-04-27 16:44 | 47.73057 | 8.62941 | 15950 ft | 202 kts | 255° |
| 2026-04-27 16:44 | 47.72633 | 8.60948 | 16219 ft | 201 kts | 255° |
| 2026-04-27 16:44 | 47.72211 | 8.58968 | 16494 ft | 201 kts | 255° |
| 2026-04-27 16:44 | 47.71790 | 8.56998 | 16773 ft | 200 kts | 255° |
| 2026-04-27 16:45 | 47.71372 | 8.55037 | 17050 ft | 198 kts | 256° |
| 2026-04-27 16:45 | 47.70956 | 8.53089 | 17332 ft | 197 kts | 256° |
| 2026-04-27 16:45 | 47.70541 | 8.51148 | 17618 ft | 197 kts | 256° |
| 2026-04-27 16:45 | 47.70127 | 8.49212 | 17906 ft | 196 kts | 256° |
| 2026-04-27 16:46 | 47.69713 | 8.47279 | 18193 ft | 196 kts | 256° |
| 2026-04-27 16:46 | 47.69305 | 8.45373 | 18470 ft | 195 kts | 256° |
| 2026-04-27 16:46 | 47.68844 | 8.43484 | 18725 ft | 196 kts | 243° |
| 2026-04-27 16:46 | 47.68071 | 8.41819 | 18991 ft | 196 kts | 239° |
| 2026-04-27 16:47 | 47.67280 | 8.40157 | 19247 ft | 199 kts | 239° |
| 2026-04-27 16:47 | 47.66483 | 8.38466 | 19529 ft | 202 kts | 239° |
| 2026-04-27 16:47 | 47.65675 | 8.36748 | 19786 ft | 204 kts | 239° |
| 2026-04-27 16:47 | 47.64857 | 8.35011 | 20060 ft | 206 kts | 239° |
| 2026-04-27 16:48 | 47.64035 | 8.33268 | 20335 ft | 207 kts | 239° |
| 2026-04-27 16:48 | 47.63210 | 8.31520 | 20612 ft | 207 kts | 239° |
| 2026-04-27 16:48 | 47.62381 | 8.29764 | 20888 ft | 208 kts | 239° |
| 2026-04-27 16:49 | 47.60721 | 8.26250 | 21449 ft | 208 kts | 239° |
| 2026-04-27 16:49 | 47.59888 | 8.24491 | 21733 ft | 208 kts | 239° |
| 2026-04-27 16:49 | 47.59055 | 8.22731 | 22015 ft | 208 kts | 239° |
| 2026-04-27 16:49 | 47.58221 | 8.20968 | 22306 ft | 209 kts | 239° |
| 2026-04-27 16:50 | 47.57394 | 8.19225 | 22595 ft | 210 kts | 239° |
| 2026-04-27 16:50 | 47.56556 | 8.17456 | 22889 ft | 210 kts | 239° |
| 2026-04-27 16:50 | 47.55716 | 8.15687 | 23188 ft | 210 kts | 239° |
| 2026-04-27 16:50 | 47.54871 | 8.13905 | 23411 ft | 213 kts | 239° |
| 2026-04-27 16:51 | 47.54009 | 8.12088 | 23585 ft | 217 kts | 239° |
| 2026-04-27 16:51 | 47.53133 | 8.10246 | 23746 ft | 220 kts | 239° |
| 2026-04-27 16:51 | 47.52244 | 8.08379 | 23890 ft | 222 kts | 239° |
| 2026-04-27 16:51 | 47.51353 | 8.06507 | 24012 ft | 223 kts | 239° |
| 2026-04-27 16:52 | 47.50451 | 8.04614 | 24094 ft | 228 kts | 239° |
| 2026-04-27 16:52 | 47.49525 | 8.02669 | 24106 ft | 234 kts | 239° |
| 2026-04-27 16:52 | 47.48577 | 8.00681 | 24106 ft | 239 kts | 239° |
| 2026-04-27 16:52 | 47.47610 | 7.98658 | 24104 ft | 243 kts | 239° |
| 2026-04-27 16:53 | 47.46650 | 7.96647 | 24105 ft | 242 kts | 239° |
| 2026-04-27 16:53 | 47.45682 | 7.94625 | 24106 ft | 239 kts | 239° |
| 2026-04-27 16:53 | 47.44723 | 7.92622 | 24102 ft | 237 kts | 239° |
| 2026-04-27 16:53 | 47.43775 | 7.90641 | 24091 ft | 236 kts | 239° |
| 2026-04-27 16:54 | 47.42830 | 7.88668 | 24090 ft | 235 kts | 239° |
| 2026-04-27 16:54 | 47.41888 | 7.86704 | 24087 ft | 234 kts | 239° |
| 2026-04-27 16:54 | 47.40945 | 7.84739 | 24087 ft | 234 kts | 239° |
| 2026-04-27 16:54 | 47.40006 | 7.82784 | 24082 ft | 233 kts | 239° |
| 2026-04-27 16:55 | 47.39069 | 7.80833 | 24078 ft | 233 kts | 239° |
| 2026-04-27 16:55 | 47.38134 | 7.78890 | 24084 ft | 232 kts | 239° |
| 2026-04-27 16:55 | 47.37211 | 7.76972 | 24083 ft | 232 kts | 239° |
| 2026-04-27 16:55 | 47.36276 | 7.75030 | 24079 ft | 232 kts | 239° |
| 2026-04-27 16:56 | 47.35342 | 7.73092 | 24081 ft | 231 kts | 239° |
| 2026-04-27 16:56 | 47.34409 | 7.71158 | 24079 ft | 231 kts | 239° |
| 2026-04-27 16:56 | 47.33478 | 7.69228 | 24069 ft | 231 kts | 239° |
| 2026-04-27 16:56 | 47.32543 | 7.67292 | 24077 ft | 231 kts | 239° |
| 2026-04-27 16:57 | 47.31610 | 7.65363 | 24076 ft | 231 kts | 239° |
| 2026-04-27 16:57 | 47.30677 | 7.63432 | 24076 ft | 231 kts | 239° |
| 2026-04-27 16:57 | 47.29677 | 7.61584 | 24074 ft | 231 kts | 236° |
| 2026-04-27 16:57 | 47.28691 | 7.59721 | 24074 ft | 231 kts | 237° |
| 2026-04-27 16:58 | 47.27722 | 7.57871 | 24076 ft | 232 kts | 237° |
| 2026-04-27 16:58 | 47.26722 | 7.56007 | 24078 ft | 232 kts | 236° |
| 2026-04-27 16:58 | 47.25718 | 7.54149 | 24076 ft | 232 kts | 236° |
| 2026-04-27 16:58 | 47.24711 | 7.52279 | 24075 ft | 231 kts | 236° |
| 2026-04-27 16:59 | 47.23712 | 7.50422 | 24072 ft | 231 kts | 236° |
| 2026-04-27 16:59 | 47.22715 | 7.48571 | 24067 ft | 231 kts | 236° |
| 2026-04-27 16:59 | 47.21717 | 7.46720 | 24067 ft | 231 kts | 236° |
| 2026-04-27 16:59 | 47.20717 | 7.44865 | 24067 ft | 231 kts | 236° |
| 2026-04-27 17:00 | 47.19063 | 7.41801 | 24067 ft | 230 kts | 236° |
| 2026-04-27 17:00 | 47.17730 | 7.39337 | 24067 ft | 230 kts | 236° |
| 2026-04-27 17:00 | 47.16744 | 7.37513 | 24067 ft | 230 kts | 236° |
| 2026-04-27 17:01 | 47.15746 | 7.35669 | 24069 ft | 230 kts | 236° |
| 2026-04-27 17:01 | 47.14750 | 7.33827 | 24066 ft | 230 kts | 236° |
| 2026-04-27 17:01 | 47.13752 | 7.31985 | 24068 ft | 230 kts | 236° |
| 2026-04-27 17:01 | 47.12756 | 7.30147 | 24068 ft | 231 kts | 236° |
| 2026-04-27 17:02 | 47.11748 | 7.28288 | 24070 ft | 231 kts | 236° |
| 2026-04-27 17:02 | 47.10756 | 7.26459 | 24075 ft | 231 kts | 236° |
| 2026-04-27 17:02 | 47.09752 | 7.24610 | 24079 ft | 231 kts | 236° |
| 2026-04-27 17:02 | 47.08747 | 7.22761 | 24081 ft | 231 kts | 236° |
| 2026-04-27 17:03 | 47.07744 | 7.20916 | 24082 ft | 232 kts | 236° |
| 2026-04-27 17:03 | 47.06737 | 7.19065 | 24084 ft | 232 kts | 236° |
| 2026-04-27 17:03 | 47.05741 | 7.17236 | 24104 ft | 232 kts | 236° |
| 2026-04-27 17:03 | 47.04732 | 7.15384 | 24105 ft | 232 kts | 236° |
| 2026-04-27 17:04 | 47.03723 | 7.13534 | 24106 ft | 232 kts | 236° |
| 2026-04-27 17:04 | 47.02714 | 7.11684 | 24109 ft | 232 kts | 236° |
| 2026-04-27 17:04 | 47.01703 | 7.09833 | 24082 ft | 232 kts | 236° |
| 2026-04-27 17:04 | 47.00691 | 7.07981 | 24081 ft | 232 kts | 236° |
| 2026-04-27 17:05 | 46.99681 | 7.06134 | 24083 ft | 232 kts | 236° |
| 2026-04-27 17:05 | 46.98672 | 7.04290 | 24082 ft | 232 kts | 236° |
| 2026-04-27 17:05 | 46.97662 | 7.02445 | 24080 ft | 232 kts | 236° |
| 2026-04-27 17:05 | 46.96994 | 7.01225 | 24080 ft | 232 kts | 236° |
| 2026-04-27 17:06 | 46.95646 | 6.98766 | 24071 ft | 232 kts | 235° |
| 2026-04-27 17:06 | 46.94649 | 6.96950 | 24071 ft | 232 kts | 235° |
| 2026-04-27 17:06 | 46.93640 | 6.95111 | 24073 ft | 231 kts | 235° |
| 2026-04-27 17:06 | 46.92631 | 6.93275 | 24073 ft | 231 kts | 235° |
| 2026-04-27 17:07 | 46.91625 | 6.91446 | 24073 ft | 231 kts | 235° |
| 2026-04-27 17:07 | 46.90619 | 6.89615 | 24071 ft | 231 kts | 235° |
| 2026-04-27 17:07 | 46.89614 | 6.87792 | 24073 ft | 230 kts | 235° |
| 2026-04-27 17:07 | 46.88609 | 6.85966 | 24072 ft | 230 kts | 235° |
| 2026-04-27 17:08 | 46.87604 | 6.84145 | 24072 ft | 230 kts | 235° |
| 2026-04-27 17:08 | 46.86599 | 6.82322 | 24072 ft | 230 kts | 235° |
| 2026-04-27 17:08 | 46.85595 | 6.80502 | 24071 ft | 230 kts | 235° |
| 2026-04-27 17:08 | 46.84591 | 6.78685 | 24072 ft | 230 kts | 235° |
| 2026-04-27 17:09 | 46.83585 | 6.76865 | 24072 ft | 230 kts | 235° |
| 2026-04-27 17:09 | 46.82580 | 6.75049 | 24073 ft | 230 kts | 235° |
| 2026-04-27 17:09 | 46.81574 | 6.73231 | 24074 ft | 230 kts | 235° |
| 2026-04-27 17:09 | 46.80569 | 6.71416 | 24074 ft | 230 kts | 235° |
| 2026-04-27 17:10 | 46.79562 | 6.69599 | 24075 ft | 230 kts | 235° |
| 2026-04-27 17:10 | 46.78566 | 6.67804 | 24079 ft | 230 kts | 235° |
| 2026-04-27 17:10 | 46.77556 | 6.65983 | 24072 ft | 231 kts | 234° |
| 2026-04-27 17:10 | 46.76544 | 6.64161 | 24077 ft | 231 kts | 234° |
| 2026-04-27 17:11 | 46.75530 | 6.62337 | 24073 ft | 232 kts | 234° |
| 2026-04-27 17:11 | 46.73498 | 6.58683 | 24077 ft | 232 kts | 234° |
| 2026-04-27 17:11 | 46.72460 | 6.56877 | 24076 ft | 232 kts | 230° |
| 2026-04-27 17:12 | 46.70332 | 6.53355 | 24081 ft | 231 kts | 233° |
| 2026-04-27 17:12 | 46.69274 | 6.51587 | 24085 ft | 232 kts | 232° |
| 2026-04-27 17:12 | 46.68203 | 6.49829 | 24087 ft | 232 kts | 232° |
| 2026-04-27 17:13 | 46.67134 | 6.48072 | 24089 ft | 231 kts | 232° |
| 2026-04-27 17:13 | 46.66070 | 6.46320 | 24089 ft | 231 kts | 232° |
| 2026-04-27 17:13 | 46.65006 | 6.44567 | 24085 ft | 231 kts | 232° |
| 2026-04-27 17:13 | 46.63960 | 6.42846 | 24084 ft | 230 kts | 232° |
| 2026-04-27 17:14 | 46.62897 | 6.41100 | 24083 ft | 230 kts | 232° |
| 2026-04-27 17:14 | 46.61837 | 6.39357 | 24083 ft | 230 kts | 232° |
| 2026-04-27 17:14 | 46.60776 | 6.37615 | 24087 ft | 230 kts | 232° |
| 2026-04-27 17:14 | 46.59715 | 6.35875 | 24084 ft | 230 kts | 232° |
| 2026-04-27 17:15 | 46.58654 | 6.34135 | 24088 ft | 230 kts | 232° |
| 2026-04-27 17:15 | 46.57593 | 6.32396 | 24088 ft | 230 kts | 232° |
| 2026-04-27 17:15 | 46.56532 | 6.30660 | 24084 ft | 229 kts | 232° |
| 2026-04-27 17:15 | 46.55473 | 6.28925 | 24087 ft | 230 kts | 232° |
| 2026-04-27 17:16 | 46.54410 | 6.27188 | 24087 ft | 230 kts | 232° |
| 2026-04-27 17:16 | 46.53361 | 6.25472 | 24087 ft | 230 kts | 232° |
| 2026-04-27 17:16 | 46.52302 | 6.23743 | 24087 ft | 230 kts | 232° |
| 2026-04-27 17:16 | 46.51239 | 6.22008 | 24087 ft | 229 kts | 232° |
| 2026-04-27 17:17 | 46.50178 | 6.20277 | 24090 ft | 229 kts | 232° |
| 2026-04-27 17:17 | 46.49115 | 6.18543 | 24089 ft | 230 kts | 232° |
| 2026-04-27 17:17 | 46.48410 | 6.17396 | 24082 ft | 229 kts | 232° |
| 2026-04-27 17:18 | 46.46288 | 6.13941 | 24095 ft | 229 kts | 232° |
| 2026-04-27 17:18 | 46.45225 | 6.12211 | 24094 ft | 230 kts | 232° |
| 2026-04-27 17:18 | 46.44163 | 6.10484 | 24094 ft | 230 kts | 232° |
| 2026-04-27 17:18 | 46.43099 | 6.08756 | 24097 ft | 230 kts | 232° |
| 2026-04-27 17:19 | 46.42034 | 6.07026 | 24095 ft | 230 kts | 232° |
| 2026-04-27 17:19 | 46.40966 | 6.05294 | 24097 ft | 231 kts | 232° |
| 2026-04-27 17:19 | 46.39894 | 6.03556 | 24070 ft | 231 kts | 231° |
| 2026-04-27 17:19 | 46.38826 | 6.01826 | 24074 ft | 230 kts | 231° |
| 2026-04-27 17:20 | 46.37757 | 6.00096 | 24081 ft | 229 kts | 231° |
| 2026-04-27 17:20 | 46.36694 | 5.98375 | 24079 ft | 229 kts | 231° |
| 2026-04-27 17:20 | 46.35629 | 5.96653 | 24074 ft | 229 kts | 231° |
| 2026-04-27 17:20 | 46.34582 | 5.94961 | 24079 ft | 229 kts | 231° |
| 2026-04-27 17:21 | 46.33517 | 5.93240 | 24081 ft | 229 kts | 231° |
| 2026-04-27 17:21 | 46.32453 | 5.91522 | 24075 ft | 229 kts | 231° |
| 2026-04-27 17:21 | 46.31388 | 5.89805 | 24077 ft | 229 kts | 231° |
| 2026-04-27 17:21 | 46.30326 | 5.88082 | 24079 ft | 228 kts | 233° |
| 2026-04-27 17:22 | 46.29426 | 5.86211 | 24077 ft | 226 kts | 238° |
| 2026-04-27 17:22 | 46.28538 | 5.84334 | 24079 ft | 227 kts | 238° |
| 2026-04-27 17:22 | 46.27640 | 5.82450 | 24079 ft | 227 kts | 238° |
| 2026-04-27 17:22 | 46.26747 | 5.80567 | 24082 ft | 228 kts | 238° |
| 2026-04-27 17:23 | 46.25852 | 5.78677 | 24083 ft | 228 kts | 238° |
| 2026-04-27 17:23 | 46.24955 | 5.76787 | 24083 ft | 228 kts | 238° |
| 2026-04-27 17:23 | 46.24069 | 5.74920 | 24086 ft | 228 kts | 238° |
| 2026-04-27 17:23 | 46.23170 | 5.73028 | 24087 ft | 228 kts | 238° |
| 2026-04-27 17:24 | 46.22272 | 5.71139 | 24080 ft | 228 kts | 238° |
| 2026-04-27 17:24 | 46.21375 | 5.69252 | 24079 ft | 228 kts | 238° |
| 2026-04-27 17:24 | 46.20477 | 5.67366 | 24081 ft | 228 kts | 238° |
| 2026-04-27 17:24 | 46.19580 | 5.65481 | 24082 ft | 228 kts | 238° |
| 2026-04-27 17:25 | 46.18678 | 5.63590 | 24081 ft | 228 kts | 238° |
| 2026-04-27 17:25 | 46.17779 | 5.61704 | 24083 ft | 228 kts | 238° |
| 2026-04-27 17:25 | 46.16877 | 5.59813 | 24086 ft | 229 kts | 238° |
| 2026-04-27 17:25 | 46.15973 | 5.57921 | 24083 ft | 229 kts | 238° |
| 2026-04-27 17:26 | 46.14999 | 5.56113 | 24082 ft | 230 kts | 224° |
| 2026-04-27 17:26 | 46.13578 | 5.55012 | 24097 ft | 238 kts | 199° |
| 2026-04-27 17:26 | 46.11950 | 5.54549 | 24096 ft | 239 kts | 195° |
| 2026-04-27 17:26 | 46.10308 | 5.54136 | 24093 ft | 239 kts | 195° |
| 2026-04-27 17:27 | 46.08670 | 5.53710 | 24093 ft | 240 kts | 195° |
| 2026-04-27 17:27 | 46.07029 | 5.53274 | 24092 ft | 240 kts | 195° |
| 2026-04-27 17:27 | 46.05388 | 5.52838 | 24091 ft | 240 kts | 195° |
| 2026-04-27 17:27 | 46.03741 | 5.52404 | 24092 ft | 240 kts | 195° |
| 2026-04-27 17:28 | 46.02115 | 5.51977 | 24084 ft | 240 kts | 195° |
| 2026-04-27 17:28 | 46.00470 | 5.51544 | 24086 ft | 241 kts | 195° |
| 2026-04-27 17:28 | 45.97170 | 5.50674 | 24086 ft | 241 kts | 195° |
| 2026-04-27 17:29 | 45.95517 | 5.50240 | 24081 ft | 241 kts | 195° |
| 2026-04-27 17:29 | 45.93874 | 5.49791 | 24078 ft | 238 kts | 199° |
| 2026-04-27 17:29 | 45.92435 | 5.48753 | 24084 ft | 230 kts | 224° |
| 2026-04-27 17:29 | 45.91423 | 5.47026 | 24092 ft | 225 kts | 240° |
| 2026-04-27 17:30 | 45.90585 | 5.45122 | 24085 ft | 226 kts | 240° |
| 2026-04-27 17:30 | 45.88907 | 5.41320 | 24084 ft | 226 kts | 239° |
| 2026-04-27 17:30 | 45.88064 | 5.39414 | 24085 ft | 226 kts | 239° |
| 2026-04-27 17:31 | 45.87217 | 5.37504 | 24085 ft | 227 kts | 239° |
| 2026-04-27 17:31 | 45.86371 | 5.35595 | 24085 ft | 227 kts | 239° |
| 2026-04-27 17:31 | 45.85533 | 5.33705 | 24083 ft | 227 kts | 239° |
| 2026-04-27 17:31 | 45.84682 | 5.31788 | 24073 ft | 228 kts | 239° |
| 2026-04-27 17:32 | 45.83830 | 5.29870 | 24072 ft | 228 kts | 239° |
| 2026-04-27 17:32 | 45.82120 | 5.26023 | 24072 ft | 229 kts | 239° |
| 2026-04-27 17:32 | 45.81263 | 5.24098 | 24072 ft | 229 kts | 239° |
| 2026-04-27 17:33 | 45.80402 | 5.22165 | 24073 ft | 229 kts | 239° |
| 2026-04-27 17:33 | 45.79544 | 5.20240 | 24074 ft | 229 kts | 239° |
| 2026-04-27 17:33 | 45.78685 | 5.18312 | 24074 ft | 229 kts | 239° |
| 2026-04-27 17:33 | 45.77837 | 5.16412 | 24074 ft | 229 kts | 239° |
| 2026-04-27 17:34 | 45.76978 | 5.14490 | 24074 ft | 229 kts | 239° |
| 2026-04-27 17:34 | 45.76118 | 5.12564 | 24074 ft | 229 kts | 239° |
| 2026-04-27 17:34 | 45.75258 | 5.10642 | 24075 ft | 229 kts | 239° |
| 2026-04-27 17:34 | 45.74415 | 5.08706 | 24074 ft | 227 kts | 244° |
| 2026-04-27 17:35 | 45.73673 | 5.06721 | 24076 ft | 226 kts | 242° |
| 2026-04-27 17:35 | 45.72895 | 5.04758 | 24075 ft | 226 kts | 242° |
| 2026-04-27 17:35 | 45.72124 | 5.02789 | 24075 ft | 227 kts | 242° |
| 2026-04-27 17:35 | 45.71360 | 5.00811 | 24075 ft | 227 kts | 243° |
| 2026-04-27 17:36 | 45.70599 | 4.98838 | 24051 ft | 227 kts | 242° |
| 2026-04-27 17:36 | 45.69835 | 4.96866 | 24068 ft | 227 kts | 242° |
| 2026-04-27 17:36 | 45.69068 | 4.94889 | 24068 ft | 227 kts | 242° |
| 2026-04-27 17:36 | 45.68313 | 4.92944 | 24069 ft | 227 kts | 242° |
| 2026-04-27 17:37 | 45.67548 | 4.90975 | 24068 ft | 227 kts | 242° |
| 2026-04-27 17:37 | 45.66786 | 4.89001 | 24058 ft | 226 kts | 244° |
| 2026-04-27 17:37 | 45.66108 | 4.86985 | 24057 ft | 225 kts | 244° |
| 2026-04-27 17:37 | 45.65379 | 4.84992 | 24060 ft | 226 kts | 244° |
| 2026-04-27 17:38 | 45.64658 | 4.82994 | 24063 ft | 227 kts | 244° |
| 2026-04-27 17:38 | 45.63948 | 4.80981 | 24064 ft | 227 kts | 244° |
| 2026-04-27 17:38 | 45.63239 | 4.78966 | 24064 ft | 227 kts | 244° |
| 2026-04-27 17:38 | 45.62527 | 4.76954 | 24066 ft | 227 kts | 244° |
| 2026-04-27 17:39 | 45.61811 | 4.74937 | 24063 ft | 227 kts | 244° |
| 2026-04-27 17:39 | 45.61106 | 4.72950 | 24064 ft | 227 kts | 244° |
| 2026-04-27 17:39 | 45.60392 | 4.70938 | 24064 ft | 227 kts | 244° |
| 2026-04-27 17:39 | 45.59676 | 4.68922 | 24065 ft | 227 kts | 244° |
| 2026-04-27 17:40 | 45.58962 | 4.66913 | 24074 ft | 227 kts | 244° |
| 2026-04-27 17:40 | 45.58247 | 4.64902 | 24074 ft | 227 kts | 244° |
| 2026-04-27 17:40 | 45.57534 | 4.62897 | 24075 ft | 226 kts | 244° |
| 2026-04-27 17:40 | 45.56820 | 4.60893 | 24075 ft | 226 kts | 244° |
| 2026-04-27 17:41 | 45.56108 | 4.58894 | 24075 ft | 226 kts | 244° |
| 2026-04-27 17:41 | 45.55395 | 4.56899 | 24077 ft | 226 kts | 244° |
| 2026-04-27 17:41 | 45.54681 | 4.54899 | 24076 ft | 226 kts | 244° |
| 2026-04-27 17:41 | 45.53965 | 4.52895 | 24076 ft | 226 kts | 244° |
| 2026-04-27 17:42 | 45.53252 | 4.50899 | 24076 ft | 226 kts | 244° |
| 2026-04-27 17:42 | 45.52539 | 4.48908 | 24073 ft | 225 kts | 244° |
| 2026-04-27 17:42 | 45.51827 | 4.46918 | 24078 ft | 226 kts | 244° |
| 2026-04-27 17:42 | 45.51112 | 4.44926 | 24072 ft | 225 kts | 244° |
| 2026-04-27 17:43 | 45.50399 | 4.42935 | 24076 ft | 225 kts | 244° |
| 2026-04-27 17:43 | 45.49696 | 4.40974 | 24077 ft | 225 kts | 244° |
| 2026-04-27 17:43 | 45.48979 | 4.38984 | 24072 ft | 225 kts | 243° |
| 2026-04-27 17:43 | 45.48150 | 4.37092 | 24070 ft | 225 kts | 239° |
| 2026-04-27 17:44 | 45.47336 | 4.35179 | 24071 ft | 226 kts | 240° |
| 2026-04-27 17:44 | 45.46522 | 4.33263 | 24073 ft | 226 kts | 240° |
| 2026-04-27 17:44 | 45.45697 | 4.31357 | 24074 ft | 226 kts | 239° |
| 2026-04-27 17:44 | 45.44867 | 4.29447 | 24075 ft | 227 kts | 239° |
| 2026-04-27 17:45 | 45.44038 | 4.27533 | 24072 ft | 227 kts | 239° |
| 2026-04-27 17:45 | 45.43210 | 4.25622 | 24075 ft | 227 kts | 239° |
| 2026-04-27 17:45 | 45.42379 | 4.23706 | 24077 ft | 227 kts | 239° |
| 2026-04-27 17:45 | 45.41548 | 4.21792 | 24078 ft | 227 kts | 239° |
| 2026-04-27 17:46 | 45.40719 | 4.19884 | 24078 ft | 227 kts | 239° |
| 2026-04-27 17:46 | 45.39888 | 4.17973 | 24078 ft | 226 kts | 239° |
| 2026-04-27 17:46 | 45.39071 | 4.16095 | 24077 ft | 226 kts | 239° |
| 2026-04-27 17:46 | 45.38241 | 4.14189 | 24079 ft | 226 kts | 239° |
| 2026-04-27 17:47 | 45.37414 | 4.12291 | 24080 ft | 226 kts | 239° |
| 2026-04-27 17:47 | 45.36864 | 4.11029 | 24077 ft | 226 kts | 239° |
| 2026-04-27 17:47 | 45.35757 | 4.08491 | 24079 ft | 225 kts | 239° |
| 2026-04-27 17:47 | 45.34930 | 4.06596 | 24081 ft | 225 kts | 239° |
| 2026-04-27 17:48 | 45.34103 | 4.04703 | 24076 ft | 225 kts | 239° |
| 2026-04-27 17:48 | 45.33275 | 4.02809 | 24079 ft | 225 kts | 239° |
| 2026-04-27 17:48 | 45.32447 | 4.00917 | 24078 ft | 225 kts | 239° |
| 2026-04-27 17:48 | 45.31620 | 3.99026 | 24087 ft | 225 kts | 239° |
| 2026-04-27 17:49 | 45.30802 | 3.97157 | 24081 ft | 226 kts | 239° |
| 2026-04-27 17:49 | 45.29970 | 3.95260 | 24079 ft | 226 kts | 239° |
| 2026-04-27 17:49 | 45.29138 | 3.93364 | 24083 ft | 227 kts | 239° |
| 2026-04-27 17:49 | 45.28302 | 3.91458 | 24084 ft | 227 kts | 239° |
| 2026-04-27 17:50 | 45.27465 | 3.89551 | 24087 ft | 227 kts | 239° |
| 2026-04-27 17:50 | 45.25792 | 3.85747 | 24091 ft | 227 kts | 239° |
| 2026-04-27 17:50 | 45.24955 | 3.83843 | 24092 ft | 227 kts | 239° |
| 2026-04-27 17:51 | 45.24118 | 3.81942 | 24095 ft | 227 kts | 239° |
| 2026-04-27 17:51 | 45.23284 | 3.80051 | 24097 ft | 226 kts | 239° |
| 2026-04-27 17:51 | 45.22451 | 3.78161 | 24098 ft | 226 kts | 239° |
| 2026-04-27 17:51 | 45.21616 | 3.76267 | 24098 ft | 226 kts | 239° |
| 2026-04-27 17:52 | 45.20781 | 3.74378 | 24078 ft | 226 kts | 239° |
| 2026-04-27 17:52 | 45.19946 | 3.72486 | 24081 ft | 227 kts | 239° |
| 2026-04-27 17:52 | 45.19108 | 3.70593 | 24081 ft | 227 kts | 239° |
| 2026-04-27 17:52 | 45.18553 | 3.69337 | 24080 ft | 227 kts | 239° |
| 2026-04-27 17:53 | 45.17441 | 3.66826 | 24077 ft | 227 kts | 239° |
| 2026-04-27 17:53 | 45.16603 | 3.64932 | 24077 ft | 227 kts | 239° |
| 2026-04-27 17:53 | 45.15763 | 3.63038 | 24075 ft | 227 kts | 239° |
| 2026-04-27 17:53 | 45.14926 | 3.61150 | 24078 ft | 227 kts | 239° |
| 2026-04-27 17:54 | 45.14085 | 3.59257 | 24078 ft | 227 kts | 239° |
| 2026-04-27 17:54 | 45.13245 | 3.57364 | 24072 ft | 227 kts | 238° |
| 2026-04-27 17:54 | 45.12400 | 3.55465 | 24070 ft | 228 kts | 239° |
| 2026-04-27 17:54 | 45.11553 | 3.53559 | 24070 ft | 228 kts | 239° |
| 2026-04-27 17:55 | 45.10708 | 3.51660 | 24066 ft | 228 kts | 238° |
| 2026-04-27 17:55 | 45.09862 | 3.49761 | 24065 ft | 228 kts | 238° |
| 2026-04-27 17:55 | 45.09016 | 3.47862 | 24063 ft | 228 kts | 238° |
| 2026-04-27 17:55 | 45.08170 | 3.45965 | 24066 ft | 227 kts | 238° |
| 2026-04-27 17:56 | 45.07335 | 3.44096 | 24068 ft | 228 kts | 238° |
| 2026-04-27 17:56 | 45.06490 | 3.42201 | 24068 ft | 228 kts | 238° |
| 2026-04-27 17:56 | 45.05642 | 3.40306 | 24066 ft | 228 kts | 238° |
| 2026-04-27 17:56 | 45.04797 | 3.38413 | 24067 ft | 228 kts | 239° |
| 2026-04-27 17:57 | 45.03949 | 3.36519 | 24073 ft | 228 kts | 238° |
| 2026-04-27 17:57 | 45.03102 | 3.34628 | 24072 ft | 228 kts | 238° |
| 2026-04-27 17:57 | 45.02253 | 3.32733 | 24073 ft | 228 kts | 238° |
| 2026-04-27 17:57 | 45.01405 | 3.30840 | 24074 ft | 228 kts | 238° |
| 2026-04-27 17:58 | 45.00550 | 3.28936 | 24072 ft | 228 kts | 238° |
| 2026-04-27 17:58 | 44.99699 | 3.27040 | 24074 ft | 229 kts | 238° |
| 2026-04-27 17:58 | 44.98846 | 3.25141 | 24074 ft | 229 kts | 238° |
| 2026-04-27 17:58 | 44.98003 | 3.23266 | 24073 ft | 229 kts | 238° |
| 2026-04-27 17:59 | 44.97148 | 3.21365 | 24074 ft | 229 kts | 238° |
| 2026-04-27 17:59 | 44.96295 | 3.19470 | 24073 ft | 229 kts | 238° |
| 2026-04-27 17:59 | 44.95441 | 3.17574 | 24073 ft | 229 kts | 238° |
| 2026-04-27 17:59 | 44.94588 | 3.15682 | 24065 ft | 229 kts | 238° |
| 2026-04-27 18:00 | 44.93735 | 3.13790 | 24067 ft | 228 kts | 238° |
| 2026-04-27 18:00 | 44.92882 | 3.11899 | 24069 ft | 228 kts | 238° |
| 2026-04-27 18:00 | 44.92025 | 3.10003 | 24067 ft | 229 kts | 238° |
| 2026-04-27 18:00 | 44.91170 | 3.08112 | 24069 ft | 229 kts | 238° |
| 2026-04-27 18:01 | 44.90315 | 3.06221 | 24069 ft | 229 kts | 238° |
| 2026-04-27 18:01 | 44.89460 | 3.04330 | 24077 ft | 229 kts | 238° |
| 2026-04-27 18:01 | 44.88605 | 3.02441 | 24080 ft | 228 kts | 238° |
| 2026-04-27 18:01 | 44.87751 | 3.00557 | 24080 ft | 228 kts | 238° |
| 2026-04-27 18:02 | 44.86907 | 2.98695 | 24081 ft | 228 kts | 238° |
| 2026-04-27 18:02 | 44.86051 | 2.96810 | 24083 ft | 228 kts | 238° |
| 2026-04-27 18:02 | 44.85198 | 2.94930 | 24083 ft | 227 kts | 238° |
| 2026-04-27 18:02 | 44.84344 | 2.93051 | 24079 ft | 227 kts | 238° |
| 2026-04-27 18:03 | 44.83491 | 2.91176 | 24078 ft | 227 kts | 238° |
| 2026-04-27 18:03 | 44.82637 | 2.89298 | 24078 ft | 227 kts | 238° |
| 2026-04-27 18:03 | 44.81784 | 2.87423 | 24078 ft | 227 kts | 238° |
| 2026-04-27 18:03 | 44.80931 | 2.85550 | 24076 ft | 227 kts | 238° |
| 2026-04-27 18:04 | 44.80086 | 2.83696 | 24076 ft | 227 kts | 238° |
| 2026-04-27 18:04 | 44.79231 | 2.81823 | 24076 ft | 227 kts | 238° |
| 2026-04-27 18:04 | 44.78377 | 2.79950 | 24083 ft | 228 kts | 238° |
| 2026-04-27 18:04 | 44.77521 | 2.78076 | 24085 ft | 228 kts | 238° |
| 2026-04-27 18:05 | 44.76664 | 2.76201 | 24083 ft | 228 kts | 238° |
| 2026-04-27 18:05 | 44.75804 | 2.74320 | 24081 ft | 228 kts | 238° |
| 2026-04-27 18:05 | 44.74947 | 2.72448 | 24083 ft | 228 kts | 238° |
| 2026-04-27 18:05 | 44.74088 | 2.70572 | 24083 ft | 228 kts | 238° |
| 2026-04-27 18:06 | 44.73230 | 2.68700 | 24088 ft | 228 kts | 238° |
| 2026-04-27 18:06 | 44.72370 | 2.66824 | 24091 ft | 228 kts | 238° |
| 2026-04-27 18:06 | 44.71801 | 2.65583 | 24091 ft | 228 kts | 238° |
| 2026-04-27 18:06 | 44.70942 | 2.63712 | 24091 ft | 228 kts | 238° |
| 2026-04-27 18:07 | 44.70082 | 2.61839 | 24091 ft | 228 kts | 238° |
| 2026-04-27 18:07 | 44.69221 | 2.59964 | 24091 ft | 228 kts | 238° |
| 2026-04-27 18:07 | 44.68358 | 2.58088 | 24089 ft | 228 kts | 238° |
| 2026-04-27 18:07 | 44.67495 | 2.56214 | 24088 ft | 228 kts | 238° |
| 2026-04-27 18:08 | 44.66634 | 2.54344 | 24090 ft | 228 kts | 238° |
| 2026-04-27 18:08 | 44.65773 | 2.52476 | 24088 ft | 228 kts | 238° |
| 2026-04-27 18:08 | 44.64917 | 2.50619 | 24091 ft | 229 kts | 238° |
| 2026-04-27 18:08 | 44.64042 | 2.48723 | 24092 ft | 228 kts | 238° |
| 2026-04-27 18:09 | 44.63178 | 2.46851 | 24091 ft | 228 kts | 238° |
| 2026-04-27 18:09 | 44.62314 | 2.44981 | 24093 ft | 228 kts | 238° |
| 2026-04-27 18:09 | 44.61461 | 2.43135 | 24092 ft | 228 kts | 238° |
| 2026-04-27 18:09 | 44.60598 | 2.41269 | 24093 ft | 228 kts | 238° |
| 2026-04-27 18:10 | 44.59734 | 2.39403 | 24095 ft | 228 kts | 238° |
| 2026-04-27 18:10 | 44.58870 | 2.37540 | 24085 ft | 228 kts | 238° |
| 2026-04-27 18:10 | 44.58007 | 2.35677 | 24084 ft | 228 kts | 238° |
| 2026-04-27 18:10 | 44.57142 | 2.33811 | 24085 ft | 228 kts | 238° |
| 2026-04-27 18:11 | 44.56276 | 2.31944 | 24086 ft | 228 kts | 238° |
| 2026-04-27 18:11 | 44.55408 | 2.30076 | 24087 ft | 229 kts | 238° |
| 2026-04-27 18:11 | 44.54538 | 2.28204 | 24086 ft | 229 kts | 238° |
| 2026-04-27 18:11 | 44.53667 | 2.26331 | 24086 ft | 230 kts | 238° |
| 2026-04-27 18:12 | 44.52794 | 2.24455 | 24088 ft | 230 kts | 238° |
| 2026-04-27 18:12 | 44.51921 | 2.22580 | 24086 ft | 230 kts | 238° |
| 2026-04-27 18:12 | 44.51048 | 2.20705 | 24083 ft | 229 kts | 238° |
| 2026-04-27 18:12 | 44.50176 | 2.18835 | 24083 ft | 229 kts | 238° |
| 2026-04-27 18:13 | 44.49304 | 2.16965 | 24082 ft | 230 kts | 238° |
| 2026-04-27 18:13 | 44.48427 | 2.15089 | 24081 ft | 230 kts | 238° |
| 2026-04-27 18:13 | 44.47555 | 2.13220 | 24080 ft | 230 kts | 238° |
| 2026-04-27 18:13 | 44.46677 | 2.11344 | 24079 ft | 230 kts | 238° |
| 2026-04-27 18:14 | 44.45801 | 2.09469 | 24077 ft | 230 kts | 238° |
| 2026-04-27 18:14 | 44.44934 | 2.07617 | 24076 ft | 230 kts | 238° |
| 2026-04-27 18:14 | 44.44056 | 2.05743 | 24072 ft | 230 kts | 238° |
| 2026-04-27 18:14 | 44.43179 | 2.03870 | 24070 ft | 230 kts | 238° |
| 2026-04-27 18:15 | 44.42302 | 2.02000 | 24068 ft | 230 kts | 238° |
| 2026-04-27 18:15 | 44.41423 | 2.00127 | 24065 ft | 230 kts | 238° |
| 2026-04-27 18:15 | 44.40545 | 1.98258 | 24059 ft | 230 kts | 238° |
| 2026-04-27 18:15 | 44.39666 | 1.96386 | 24050 ft | 230 kts | 237° |
| 2026-04-27 18:16 | 44.38783 | 1.94509 | 24046 ft | 231 kts | 237° |
| 2026-04-27 18:16 | 44.37900 | 1.92633 | 24046 ft | 231 kts | 237° |
| 2026-04-27 18:16 | 44.37015 | 1.90751 | 24053 ft | 231 kts | 238° |
| 2026-04-27 18:16 | 44.36132 | 1.88877 | 24054 ft | 231 kts | 238° |
| 2026-04-27 18:17 | 44.35247 | 1.87000 | 24058 ft | 231 kts | 238° |
| 2026-04-27 18:17 | 44.34363 | 1.85125 | 24058 ft | 231 kts | 237° |
| 2026-04-27 18:17 | 44.33479 | 1.83253 | 24055 ft | 231 kts | 238° |
| 2026-04-27 18:17 | 44.32596 | 1.81382 | 24056 ft | 231 kts | 238° |
| 2026-04-27 18:18 | 44.31712 | 1.79513 | 24058 ft | 231 kts | 237° |
| 2026-04-27 18:18 | 44.30828 | 1.77643 | 24058 ft | 231 kts | 237° |
| 2026-04-27 18:18 | 44.29953 | 1.75795 | 24058 ft | 231 kts | 237° |
| 2026-04-27 18:18 | 44.29114 | 1.73896 | 24056 ft | 229 kts | 240° |
| 2026-04-27 18:19 | 44.28276 | 1.72002 | 24054 ft | 229 kts | 238° |
| 2026-04-27 18:19 | 44.27415 | 1.70127 | 24053 ft | 230 kts | 238° |
| 2026-04-27 18:19 | 44.26572 | 1.68238 | 24054 ft | 230 kts | 239° |
| 2026-04-27 18:19 | 44.25732 | 1.66333 | 24052 ft | 230 kts | 239° |
| 2026-04-27 18:20 | 44.24889 | 1.64430 | 24056 ft | 230 kts | 239° |
| 2026-04-27 18:20 | 44.24045 | 1.62531 | 24056 ft | 230 kts | 239° |
| 2026-04-27 18:20 | 44.23199 | 1.60630 | 24056 ft | 230 kts | 239° |
| 2026-04-27 18:20 | 44.22353 | 1.58729 | 24057 ft | 231 kts | 239° |
| 2026-04-27 18:21 | 44.21508 | 1.56830 | 24055 ft | 231 kts | 239° |
| 2026-04-27 18:21 | 44.20661 | 1.54927 | 24055 ft | 231 kts | 239° |
| 2026-04-27 18:21 | 44.19812 | 1.53024 | 24055 ft | 231 kts | 239° |
| 2026-04-27 18:21 | 44.18973 | 1.51143 | 24060 ft | 231 kts | 239° |
| 2026-04-27 18:22 | 44.18125 | 1.49243 | 24061 ft | 231 kts | 239° |
| 2026-04-27 18:22 | 44.17278 | 1.47347 | 24062 ft | 230 kts | 239° |
| 2026-04-27 18:22 | 44.16433 | 1.45456 | 24062 ft | 230 kts | 239° |
| 2026-04-27 18:22 | 44.15586 | 1.43560 | 24062 ft | 230 kts | 239° |
| 2026-04-27 18:23 | 44.14741 | 1.41674 | 24064 ft | 230 kts | 239° |
| 2026-04-27 18:23 | 44.13896 | 1.39786 | 24064 ft | 230 kts | 239° |
| 2026-04-27 18:23 | 44.13051 | 1.37900 | 24063 ft | 230 kts | 239° |
| 2026-04-27 18:23 | 44.12205 | 1.36014 | 24064 ft | 230 kts | 239° |
| 2026-04-27 18:24 | 44.11359 | 1.34128 | 24060 ft | 230 kts | 239° |
| 2026-04-27 18:24 | 44.10514 | 1.32245 | 24060 ft | 229 kts | 239° |
| 2026-04-27 18:24 | 44.09667 | 1.30361 | 24059 ft | 230 kts | 239° |
| 2026-04-27 18:24 | 44.08820 | 1.28477 | 24059 ft | 230 kts | 239° |
| 2026-04-27 18:25 | 44.07974 | 1.26595 | 24059 ft | 229 kts | 239° |
| 2026-04-27 18:25 | 44.07127 | 1.24713 | 24059 ft | 229 kts | 239° |
| 2026-04-27 18:25 | 44.06280 | 1.22833 | 24059 ft | 229 kts | 239° |
| 2026-04-27 18:25 | 44.05435 | 1.20958 | 24059 ft | 229 kts | 239° |
| 2026-04-27 18:26 | 44.04599 | 1.19106 | 24062 ft | 229 kts | 239° |
| 2026-04-27 18:26 | 44.03753 | 1.17229 | 24062 ft | 229 kts | 239° |
| 2026-04-27 18:26 | 44.02905 | 1.15352 | 24062 ft | 229 kts | 239° |
| 2026-04-27 18:26 | 44.02058 | 1.13477 | 24055 ft | 229 kts | 238° |
| 2026-04-27 18:27 | 44.01208 | 1.11598 | 24057 ft | 229 kts | 238° |
| 2026-04-27 18:27 | 44.00357 | 1.09718 | 24057 ft | 230 kts | 238° |
| 2026-04-27 18:27 | 43.99505 | 1.07836 | 24057 ft | 230 kts | 238° |
| 2026-04-27 18:27 | 43.98655 | 1.05958 | 24055 ft | 230 kts | 238° |
| 2026-04-27 18:28 | 43.97803 | 1.04081 | 24058 ft | 230 kts | 238° |
| 2026-04-27 18:28 | 43.96951 | 1.02202 | 24057 ft | 230 kts | 238° |
| 2026-04-27 18:28 | 43.96099 | 1.00325 | 24059 ft | 230 kts | 238° |
| 2026-04-27 18:28 | 43.95245 | 0.98444 | 24058 ft | 230 kts | 238° |
| 2026-04-27 18:29 | 43.94392 | 0.96568 | 24061 ft | 230 kts | 238° |
| 2026-04-27 18:29 | 43.93538 | 0.94690 | 24061 ft | 230 kts | 238° |
| 2026-04-27 18:29 | 43.92680 | 0.92806 | 24060 ft | 230 kts | 238° |
| 2026-04-27 18:29 | 43.91824 | 0.90926 | 24058 ft | 230 kts | 238° |
| 2026-04-27 18:30 | 43.90969 | 0.89049 | 24058 ft | 230 kts | 238° |
| 2026-04-27 18:30 | 43.90113 | 0.87172 | 24058 ft | 230 kts | 238° |
| 2026-04-27 18:30 | 43.89267 | 0.85317 | 24059 ft | 230 kts | 238° |
| 2026-04-27 18:30 | 43.88411 | 0.83442 | 24059 ft | 230 kts | 238° |
| 2026-04-27 18:31 | 43.87552 | 0.81564 | 24059 ft | 230 kts | 238° |
| 2026-04-27 18:31 | 43.86694 | 0.79686 | 24059 ft | 231 kts | 238° |
| 2026-04-27 18:31 | 43.85834 | 0.77807 | 24059 ft | 230 kts | 238° |
| 2026-04-27 18:31 | 43.84976 | 0.75932 | 24066 ft | 230 kts | 238° |
| 2026-04-27 18:32 | 43.84119 | 0.74060 | 24069 ft | 230 kts | 238° |
| 2026-04-27 18:32 | 43.83261 | 0.72190 | 24070 ft | 230 kts | 238° |
| 2026-04-27 18:32 | 43.82404 | 0.70320 | 24069 ft | 230 kts | 237° |
| 2026-04-27 18:32 | 43.81547 | 0.68453 | 24069 ft | 230 kts | 237° |
| 2026-04-27 18:33 | 43.80690 | 0.66588 | 24069 ft | 230 kts | 237° |
| 2026-04-27 18:33 | 43.79843 | 0.64743 | 24068 ft | 229 kts | 237° |
| 2026-04-27 18:33 | 43.78987 | 0.62881 | 24068 ft | 229 kts | 237° |
| 2026-04-27 18:33 | 43.78130 | 0.61020 | 24065 ft | 229 kts | 237° |
| 2026-04-27 18:34 | 43.77276 | 0.59165 | 24067 ft | 229 kts | 237° |
| 2026-04-27 18:34 | 43.76420 | 0.57307 | 24067 ft | 229 kts | 237° |
| 2026-04-27 18:34 | 43.75566 | 0.55454 | 24066 ft | 229 kts | 237° |
| 2026-04-27 18:34 | 43.74711 | 0.53601 | 24068 ft | 228 kts | 237° |
| 2026-04-27 18:35 | 43.73856 | 0.51748 | 24065 ft | 228 kts | 237° |
| 2026-04-27 18:35 | 43.73002 | 0.49899 | 24066 ft | 228 kts | 237° |
| 2026-04-27 18:35 | 43.72146 | 0.48046 | 24065 ft | 228 kts | 237° |
| 2026-04-27 18:35 | 43.71291 | 0.46200 | 24065 ft | 228 kts | 237° |
| 2026-04-27 18:36 | 43.70438 | 0.44356 | 24066 ft | 227 kts | 237° |
| 2026-04-27 18:36 | 43.69587 | 0.42518 | 24066 ft | 227 kts | 237° |
| 2026-04-27 18:36 | 43.68735 | 0.40679 | 24065 ft | 227 kts | 237° |
| 2026-04-27 18:36 | 43.67887 | 0.38851 | 24064 ft | 226 kts | 237° |
| 2026-04-27 18:37 | 43.67035 | 0.37014 | 24066 ft | 226 kts | 237° |
| 2026-04-27 18:37 | 43.66200 | 0.35213 | 24068 ft | 226 kts | 237° |
| 2026-04-27 18:37 | 43.65342 | 0.33368 | 24067 ft | 225 kts | 237° |
| 2026-04-27 18:37 | 43.64508 | 0.31574 | 24067 ft | 225 kts | 237° |
| 2026-04-27 18:38 | 43.63664 | 0.29758 | 24068 ft | 224 kts | 237° |
| 2026-04-27 18:38 | 43.62818 | 0.27940 | 24067 ft | 224 kts | 237° |
| 2026-04-27 18:38 | 43.61977 | 0.26135 | 24067 ft | 224 kts | 237° |
| 2026-04-27 18:38 | 43.61134 | 0.24325 | 24065 ft | 224 kts | 236° |
| 2026-04-27 18:39 | 43.60292 | 0.22520 | 24063 ft | 223 kts | 236° |
| 2026-04-27 18:39 | 43.59452 | 0.20719 | 24065 ft | 223 kts | 236° |
| 2026-04-27 18:39 | 43.58613 | 0.18921 | 24070 ft | 223 kts | 236° |
| 2026-04-27 18:39 | 43.57774 | 0.17125 | 24069 ft | 223 kts | 236° |
| 2026-04-27 18:40 | 43.56935 | 0.15331 | 24070 ft | 222 kts | 236° |
| 2026-04-27 18:40 | 43.56096 | 0.13537 | 24073 ft | 222 kts | 236° |
| 2026-04-27 18:40 | 43.55257 | 0.11744 | 24072 ft | 222 kts | 236° |
| 2026-04-27 18:40 | 43.54419 | 0.09955 | 24071 ft | 222 kts | 236° |
| 2026-04-27 18:41 | 43.53594 | 0.08193 | 24071 ft | 221 kts | 236° |
| 2026-04-27 18:41 | 43.52759 | 0.06411 | 24072 ft | 221 kts | 236° |
| 2026-04-27 18:41 | 43.51923 | 0.04630 | 24071 ft | 221 kts | 236° |
| 2026-04-27 18:41 | 43.51088 | 0.02851 | 24077 ft | 221 kts | 236° |
| 2026-04-27 18:42 | 43.50254 | 0.01075 | 24078 ft | 220 kts | 236° |
| 2026-04-27 18:42 | 43.49703 | -0.00098 | 24083 ft | 220 kts | 236° |
| 2026-04-27 18:42 | 43.48590 | -0.02465 | 24087 ft | 220 kts | 237° |
| 2026-04-27 18:42 | 43.47757 | -0.04234 | 24081 ft | 220 kts | 237° |
| 2026-04-27 18:43 | 43.46922 | -0.06007 | 24082 ft | 221 kts | 237° |
| 2026-04-27 18:43 | 43.46086 | -0.07784 | 24082 ft | 221 kts | 237° |
| 2026-04-27 18:43 | 43.45249 | -0.09560 | 24082 ft | 221 kts | 237° |
| 2026-04-27 18:43 | 43.44410 | -0.11337 | 24084 ft | 222 kts | 237° |
| 2026-04-27 18:44 | 43.43569 | -0.13119 | 24084 ft | 222 kts | 237° |
| 2026-04-27 18:44 | 43.42726 | -0.14905 | 24079 ft | 223 kts | 236° |
| 2026-04-27 18:44 | 43.41890 | -0.16673 | 24079 ft | 223 kts | 236° |
| 2026-04-27 18:44 | 43.41040 | -0.18471 | 24082 ft | 224 kts | 236° |
| 2026-04-27 18:45 | 43.40189 | -0.20271 | 24086 ft | 225 kts | 236° |
| 2026-04-27 18:45 | 43.39334 | -0.22077 | 24087 ft | 226 kts | 236° |
| 2026-04-27 18:45 | 43.38475 | -0.23890 | 24087 ft | 226 kts | 236° |
| 2026-04-27 18:45 | 43.37616 | -0.25703 | 24085 ft | 227 kts | 236° |
| 2026-04-27 18:46 | 43.36755 | -0.27519 | 24085 ft | 227 kts | 236° |
| 2026-04-27 18:46 | 43.35893 | -0.29335 | 24081 ft | 227 kts | 236° |
| 2026-04-27 18:46 | 43.35029 | -0.31154 | 24083 ft | 227 kts | 236° |
| 2026-04-27 18:46 | 43.34166 | -0.32971 | 24083 ft | 227 kts | 236° |
| 2026-04-27 18:47 | 43.33299 | -0.34794 | 24083 ft | 227 kts | 236° |
| 2026-04-27 18:47 | 43.32446 | -0.36587 | 24083 ft | 227 kts | 236° |
| 2026-04-27 18:47 | 43.31582 | -0.38403 | 24083 ft | 227 kts | 236° |
| 2026-04-27 18:47 | 43.30716 | -0.40220 | 24084 ft | 227 kts | 236° |
| 2026-04-27 18:48 | 43.29848 | -0.42042 | 24081 ft | 227 kts | 236° |
| 2026-04-27 18:48 | 43.28983 | -0.43855 | 24082 ft | 227 kts | 236° |
| 2026-04-27 18:48 | 43.28115 | -0.45674 | 24083 ft | 228 kts | 236° |
| 2026-04-27 18:48 | 43.27248 | -0.47491 | 24082 ft | 228 kts | 236° |
| 2026-04-27 18:49 | 43.26380 | -0.49307 | 24088 ft | 228 kts | 236° |
| 2026-04-27 18:49 | 43.25510 | -0.51126 | 24084 ft | 228 kts | 236° |
| 2026-04-27 18:49 | 43.24642 | -0.52942 | 24087 ft | 227 kts | 236° |
| 2026-04-27 18:49 | 43.23774 | -0.54756 | 24087 ft | 227 kts | 236° |
| 2026-04-27 18:50 | 43.22905 | -0.56569 | 24089 ft | 227 kts | 236° |
| 2026-04-27 18:50 | 43.22037 | -0.58380 | 24085 ft | 227 kts | 236° |
| 2026-04-27 18:50 | 43.21178 | -0.60171 | 24087 ft | 228 kts | 236° |
| 2026-04-27 18:50 | 43.20306 | -0.61989 | 24091 ft | 228 kts | 236° |
| 2026-04-27 18:51 | 43.19435 | -0.63804 | 24091 ft | 228 kts | 236° |
| 2026-04-27 18:51 | 43.18561 | -0.65621 | 24097 ft | 228 kts | 236° |
| 2026-04-27 18:51 | 43.17690 | -0.67434 | 24099 ft | 228 kts | 236° |
| 2026-04-27 18:51 | 43.16817 | -0.69248 | 24101 ft | 228 kts | 236° |
| 2026-04-27 18:52 | 43.15945 | -0.71061 | 24100 ft | 228 kts | 236° |
| 2026-04-27 18:52 | 43.15071 | -0.72875 | 24099 ft | 227 kts | 236° |
| 2026-04-27 18:52 | 43.14201 | -0.74679 | 24102 ft | 227 kts | 236° |
| 2026-04-27 18:53 | 43.12456 | -0.78299 | 24107 ft | 228 kts | 236° |
| 2026-04-27 18:53 | 43.11592 | -0.80087 | 24107 ft | 228 kts | 236° |
| 2026-04-27 18:53 | 43.11001 | -0.81310 | 24107 ft | 228 kts | 236° |
| 2026-04-27 18:53 | 43.09840 | -0.83712 | 24106 ft | 229 kts | 236° |
| 2026-04-27 18:54 | 43.08962 | -0.85529 | 24109 ft | 229 kts | 236° |
| 2026-04-27 18:54 | 43.08082 | -0.87347 | 24110 ft | 229 kts | 236° |
| 2026-04-27 18:54 | 43.07200 | -0.89167 | 24110 ft | 229 kts | 236° |
| 2026-04-27 18:54 | 43.06605 | -0.90395 | 24111 ft | 230 kts | 236° |
| 2026-04-27 18:55 | 43.05733 | -0.92194 | 24109 ft | 229 kts | 236° |
| 2026-04-27 18:55 | 43.04852 | -0.94011 | 24110 ft | 230 kts | 236° |
| 2026-04-27 18:55 | 43.03968 | -0.95832 | 24110 ft | 229 kts | 236° |
| 2026-04-27 18:55 | 43.03087 | -0.97646 | 24111 ft | 229 kts | 236° |
| 2026-04-27 18:56 | 43.02206 | -0.99460 | 24109 ft | 229 kts | 236° |
| 2026-04-27 18:56 | 43.01325 | -1.01271 | 24097 ft | 228 kts | 235° |
| 2026-04-27 18:56 | 43.00450 | -1.03071 | 24099 ft | 228 kts | 236° |
| 2026-04-27 18:56 | 42.99572 | -1.04877 | 24098 ft | 228 kts | 237° |
| 2026-04-27 18:57 | 42.98820 | -1.06782 | 24094 ft | 227 kts | 240° |
| 2026-04-27 18:57 | 42.98059 | -1.08676 | 24094 ft | 228 kts | 240° |
| 2026-04-27 18:57 | 42.97294 | -1.10576 | 24092 ft | 228 kts | 240° |
| 2026-04-27 18:57 | 42.96535 | -1.12486 | 24092 ft | 228 kts | 240° |
| 2026-04-27 18:58 | 42.95779 | -1.14393 | 24093 ft | 228 kts | 240° |
| 2026-04-27 18:58 | 42.95031 | -1.16274 | 24104 ft | 229 kts | 241° |
| 2026-04-27 18:58 | 42.94268 | -1.18191 | 24104 ft | 230 kts | 241° |
| 2026-04-27 18:58 | 42.93503 | -1.20110 | 24107 ft | 230 kts | 241° |
| 2026-04-27 18:59 | 42.92737 | -1.22033 | 24105 ft | 231 kts | 241° |
| 2026-04-27 18:59 | 42.91968 | -1.23960 | 24109 ft | 231 kts | 241° |
| 2026-04-27 18:59 | 42.91200 | -1.25885 | 24111 ft | 231 kts | 241° |
| 2026-04-27 18:59 | 42.90432 | -1.27809 | 24111 ft | 231 kts | 241° |
| 2026-04-27 19:00 | 42.89661 | -1.29739 | 24107 ft | 232 kts | 241° |
| 2026-04-27 19:00 | 42.88889 | -1.31668 | 24107 ft | 232 kts | 241° |
| 2026-04-27 19:00 | 42.88117 | -1.33598 | 24107 ft | 232 kts | 241° |
| 2026-04-27 19:00 | 42.87344 | -1.35529 | 24107 ft | 232 kts | 241° |
| 2026-04-27 19:01 | 42.86571 | -1.37458 | 24109 ft | 232 kts | 241° |
| 2026-04-27 19:01 | 42.85796 | -1.39390 | 24110 ft | 232 kts | 241° |
| 2026-04-27 19:01 | 42.85031 | -1.41296 | 24106 ft | 232 kts | 241° |
| 2026-04-27 19:01 | 42.84256 | -1.43226 | 24107 ft | 232 kts | 241° |
| 2026-04-27 19:02 | 42.83480 | -1.45157 | 24109 ft | 232 kts | 241° |
| 2026-04-27 19:02 | 42.82705 | -1.47086 | 24107 ft | 232 kts | 241° |
| 2026-04-27 19:02 | 42.81930 | -1.49012 | 24109 ft | 232 kts | 241° |
| 2026-04-27 19:02 | 42.81153 | -1.50943 | 24109 ft | 232 kts | 241° |
| 2026-04-27 19:03 | 42.80376 | -1.52871 | 24108 ft | 232 kts | 241° |
| 2026-04-27 19:03 | 42.79600 | -1.54796 | 24108 ft | 232 kts | 241° |
| 2026-04-27 19:03 | 42.78822 | -1.56724 | 24107 ft | 232 kts | 241° |
| 2026-04-27 19:03 | 42.78307 | -1.58000 | 24108 ft | 233 kts | 241° |
| 2026-04-27 19:04 | 42.77265 | -1.60582 | 24108 ft | 233 kts | 241° |
| 2026-04-27 19:04 | 42.76485 | -1.62511 | 24108 ft | 233 kts | 241° |
| 2026-04-27 19:04 | 42.75703 | -1.64443 | 24108 ft | 233 kts | 241° |
| 2026-04-27 19:04 | 42.74924 | -1.66370 | 24108 ft | 233 kts | 241° |
| 2026-04-27 19:05 | 42.74176 | -1.68321 | 24105 ft | 231 kts | 249° |
| 2026-04-27 19:05 | 42.73977 | -1.70477 | 24112 ft | 233 kts | 274° |
| 2026-04-27 19:05 | 42.74491 | -1.72581 | 24114 ft | 238 kts | 297° |
| 2026-04-27 19:05 | 42.75382 | -1.74492 | 24113 ft | 240 kts | 299° |
| 2026-04-27 19:06 | 42.76281 | -1.76371 | 24110 ft | 240 kts | 299° |
| 2026-04-27 19:06 | 42.77185 | -1.78284 | 24108 ft | 241 kts | 298° |
| 2026-04-27 19:06 | 42.78088 | -1.80209 | 24112 ft | 241 kts | 298° |
| 2026-04-27 19:06 | 42.78992 | -1.82135 | 24110 ft | 241 kts | 298° |
| 2026-04-27 19:07 | 42.79898 | -1.84064 | 24109 ft | 242 kts | 298° |
| 2026-04-27 19:07 | 42.80805 | -1.85996 | 24110 ft | 243 kts | 298° |
| 2026-04-27 19:07 | 42.81714 | -1.87935 | 24097 ft | 243 kts | 298° |
| 2026-04-27 19:07 | 42.82643 | -1.89917 | 23805 ft | 252 kts | 299° |
| 2026-04-27 19:08 | 42.83593 | -1.91945 | 23435 ft | 256 kts | 299° |
| 2026-04-27 19:08 | 42.84555 | -1.93999 | 23048 ft | 259 kts | 299° |
| 2026-04-27 19:08 | 42.85528 | -1.96076 | 22656 ft | 261 kts | 299° |
| 2026-04-27 19:08 | 42.86509 | -1.98172 | 22268 ft | 263 kts | 299° |
| 2026-04-27 19:09 | 42.87494 | -2.00276 | 21893 ft | 264 kts | 299° |
| 2026-04-27 19:09 | 42.88480 | -2.02387 | 21510 ft | 265 kts | 299° |
| 2026-04-27 19:09 | 42.89469 | -2.04505 | 21130 ft | 265 kts | 299° |
| 2026-04-27 19:09 | 42.90458 | -2.06629 | 20758 ft | 265 kts | 299° |
| 2026-04-27 19:10 | 42.91445 | -2.08752 | 20390 ft | 265 kts | 299° |
| 2026-04-27 19:10 | 42.92431 | -2.10874 | 20015 ft | 265 kts | 299° |
| 2026-04-27 19:10 | 42.93420 | -2.12997 | 19664 ft | 265 kts | 299° |
| 2026-04-27 19:10 | 42.94078 | -2.14397 | 19437 ft | 265 kts | 299° |
| 2026-04-27 19:11 | 42.95397 | -2.17222 | 18957 ft | 263 kts | 298° |
| 2026-04-27 19:11 | 42.96363 | -2.19303 | 18610 ft | 262 kts | 298° |
| 2026-04-27 19:11 | 42.97338 | -2.21410 | 18243 ft | 263 kts | 299° |
| 2026-04-27 19:11 | 42.98318 | -2.23520 | 17848 ft | 263 kts | 298° |
| 2026-04-27 19:12 | 42.99303 | -2.25628 | 17457 ft | 262 kts | 299° |
| 2026-04-27 19:12 | 43.00293 | -2.27724 | 17083 ft | 262 kts | 299° |
| 2026-04-27 19:12 | 43.01276 | -2.29810 | 16705 ft | 261 kts | 299° |
| 2026-04-27 19:12 | 43.02257 | -2.31901 | 16327 ft | 261 kts | 299° |
| 2026-04-27 19:13 | 43.03235 | -2.33988 | 15954 ft | 261 kts | 299° |
| 2026-04-27 19:13 | 43.04211 | -2.36071 | 15586 ft | 260 kts | 299° |
| 2026-04-27 19:13 | 43.05188 | -2.38156 | 15220 ft | 260 kts | 299° |
| 2026-04-27 19:13 | 43.06162 | -2.40235 | 14859 ft | 259 kts | 299° |
| 2026-04-27 19:14 | 43.07133 | -2.42311 | 14505 ft | 259 kts | 299° |
| 2026-04-27 19:14 | 43.08100 | -2.44380 | 14155 ft | 259 kts | 300° |
| 2026-04-27 19:14 | 43.09071 | -2.46461 | 13789 ft | 260 kts | 300° |
| 2026-04-27 19:14 | 43.10048 | -2.48554 | 13398 ft | 261 kts | 300° |
| 2026-04-27 19:15 | 43.11027 | -2.50652 | 13009 ft | 262 kts | 300° |
| 2026-04-27 19:15 | 43.12007 | -2.52754 | 12622 ft | 262 kts | 300° |
| 2026-04-27 19:15 | 43.12987 | -2.54859 | 12247 ft | 261 kts | 300° |
| 2026-04-27 19:15 | 43.13964 | -2.56956 | 11874 ft | 261 kts | 300° |
| 2026-04-27 19:16 | 43.14936 | -2.59048 | 11501 ft | 260 kts | 300° |
| 2026-04-27 19:16 | 43.15579 | -2.60429 | 11258 ft | 259 kts | 300° |
| 2026-04-27 19:16 | 43.16858 | -2.63185 | 10784 ft | 258 kts | 301° |
| 2026-04-27 19:16 | 43.17819 | -2.65254 | 10428 ft | 257 kts | 301° |
| 2026-04-27 19:17 | 43.18777 | -2.67320 | 10068 ft | 256 kts | 301° |
| 2026-04-27 19:17 | 43.19731 | -2.69377 | 9684 ft | 255 kts | 301° |
| 2026-04-27 19:17 | 43.20663 | -2.71387 | 9292 ft | 243 kts | 301° |
| 2026-04-27 19:17 | 43.21550 | -2.73299 | 8896 ft | 232 kts | 301° |
| 2026-04-27 19:18 | 43.22400 | -2.75137 | 8503 ft | 224 kts | 301° |
| 2026-04-27 19:18 | 43.23222 | -2.76917 | 8120 ft | 218 kts | 301° |
| 2026-04-27 19:18 | 43.24013 | -2.78630 | 7749 ft | 213 kts | 301° |
| 2026-04-27 19:18 | 43.24800 | -2.80333 | 7377 ft | 209 kts | 301° |
| 2026-04-27 19:19 | 43.25573 | -2.82009 | 6997 ft | 206 kts | 301° |
| 2026-04-27 19:19 | 43.26333 | -2.83656 | 6634 ft | 203 kts | 301° |
| 2026-04-27 19:19 | 43.27087 | -2.85292 | 6255 ft | 201 kts | 302° |
| 2026-04-27 19:19 | 43.27830 | -2.86905 | 5884 ft | 199 kts | 302° |
| 2026-04-27 19:20 | 43.28558 | -2.88487 | 5601 ft | 192 kts | 302° |
| 2026-04-27 19:20 | 43.29254 | -2.89999 | 5420 ft | 182 kts | 302° |
| 2026-04-27 19:20 | 43.29913 | -2.91431 | 5253 ft | 173 kts | 302° |
| 2026-04-27 19:20 | 43.30568 | -2.92769 | 5079 ft | 163 kts | 313° |
| 2026-04-27 19:21 | 43.31333 | -2.93870 | 4911 ft | 157 kts | 313° |
| 2026-04-27 19:21 | 43.32070 | -2.94964 | 4743 ft | 156 kts | 313° |
| 2026-04-27 19:21 | 43.32819 | -2.96074 | 4589 ft | 162 kts | 314° |
| 2026-04-27 19:21 | 43.33600 | -2.97228 | 4450 ft | 166 kts | 314° |
| 2026-04-27 19:22 | 43.34391 | -2.98394 | 4309 ft | 167 kts | 313° |
| 2026-04-27 19:22 | 43.35184 | -2.99565 | 4164 ft | 168 kts | 314° |
| 2026-04-27 19:22 | 43.35971 | -3.00728 | 4021 ft | 168 kts | 314° |
| 2026-04-27 19:22 | 43.36766 | -3.01903 | 3875 ft | 168 kts | 314° |
| 2026-04-27 19:23 | 43.37561 | -3.03080 | 3729 ft | 168 kts | 314° |
| 2026-04-27 19:23 | 43.38352 | -3.04250 | 3584 ft | 167 kts | 314° |
| 2026-04-27 19:23 | 43.39142 | -3.05418 | 3488 ft | 165 kts | 314° |
| 2026-04-27 19:23 | 43.39919 | -3.06570 | 3481 ft | 166 kts | 314° |
| 2026-04-27 19:24 | 43.40716 | -3.07752 | 3486 ft | 171 kts | 314° |
| 2026-04-27 19:24 | 43.41535 | -3.08966 | 3496 ft | 175 kts | 314° |
| 2026-04-27 19:24 | 43.42367 | -3.10199 | 3500 ft | 177 kts | 314° |
| 2026-04-27 19:24 | 43.43208 | -3.11446 | 3497 ft | 178 kts | 314° |
| 2026-04-27 19:25 | 43.44053 | -3.12700 | 3501 ft | 179 kts | 314° |
| 2026-04-27 19:25 | 43.44898 | -3.13956 | 3501 ft | 179 kts | 314° |
| 2026-04-27 19:25 | 43.45675 | -3.15282 | 3500 ft | 179 kts | 296° |
| 2026-04-27 19:25 | 43.45998 | -3.16904 | 3503 ft | 180 kts | 274° |
| 2026-04-27 19:26 | 43.45827 | -3.18596 | 3502 ft | 179 kts | 249° |
| 2026-04-27 19:26 | 43.45183 | -3.20035 | 3502 ft | 176 kts | 224° |
| 2026-04-27 19:26 | 43.44196 | -3.20988 | 3505 ft | 172 kts | 200° |
| 2026-04-27 19:26 | 43.43045 | -3.21329 | 3505 ft | 168 kts | 177° |
| 2026-04-27 19:27 | 43.41910 | -3.21044 | 3504 ft | 165 kts | 155° |
| 2026-04-27 19:27 | 43.40953 | -3.20210 | 3500 ft | 162 kts | 134° |
| 2026-04-27 19:27 | 43.40297 | -3.18974 | 3500 ft | 159 kts | 115° |
| 2026-04-27 19:27 | 43.39811 | -3.17606 | 3497 ft | 159 kts | 117° |
| 2026-04-27 19:28 | 43.39239 | -3.16300 | 3466 ft | 159 kts | 115° |
| 2026-04-27 19:28 | 43.38791 | -3.14961 | 3512 ft | 149 kts | 113° |
| 2026-04-27 19:28 | 43.38374 | -3.13691 | 3500 ft | 142 kts | 113° |
| 2026-04-27 19:28 | 43.37979 | -3.12529 | 3488 ft | 124 kts | 115° |
| 2026-04-27 19:29 | 43.37601 | -3.11515 | 3360 ft | 116 kts | 116° |
| 2026-04-27 19:29 | 43.37217 | -3.10548 | 3195 ft | 114 kts | 114° |
| 2026-04-27 19:29 | 43.36863 | -3.09583 | 3056 ft | 112 kts | 115° |
| 2026-04-27 19:29 | 43.36511 | -3.08634 | 2918 ft | 111 kts | 113° |
| 2026-04-27 19:30 | 43.36158 | -3.07670 | 2750 ft | 114 kts | 114° |
| 2026-04-27 19:30 | 43.35796 | -3.06709 | 2566 ft | 113 kts | 114° |
| 2026-04-27 19:30 | 43.35453 | -3.05731 | 2386 ft | 114 kts | 114° |
| 2026-04-27 19:30 | 43.35136 | -3.04731 | 2204 ft | 115 kts | 109° |
| 2026-04-27 19:31 | 43.34798 | -3.03726 | 1995 ft | 117 kts | 119° |
| 2026-04-27 19:31 | 43.34401 | -3.02777 | 1791 ft | 116 kts | 118° |
| 2026-04-27 19:31 | 43.34019 | -3.01823 | 1597 ft | 113 kts | 115° |
| 2026-04-27 19:31 | 43.33668 | -3.00837 | 1424 ft | 116 kts | 113° |
| 2026-04-27 19:32 | 43.33315 | -2.99865 | 1324 ft | 111 kts | 115° |
| 2026-04-27 19:32 | 43.32981 | -2.98913 | 1189 ft | 111 kts | 114° |
| 2026-04-27 19:32 | 43.32630 | -2.97953 | 1017 ft | 113 kts | 114° |
| 2026-04-27 19:32 | 43.32298 | -2.96987 | 909 ft | 109 kts | 115° |
| 2026-04-27 19:33 | 43.31936 | -2.96065 | 761 ft | 112 kts | 116° |
| 2026-04-27 19:33 | 43.31707 | -2.95422 | 643 ft | 114 kts | 115° |
| 2026-04-27 19:33 | 43.31230 | -2.94130 | 417 ft | 113 kts | 115° |
| 2026-04-27 19:33 | 43.30883 | -2.93177 | 257 ft | 109 kts | 115° |
| 2026-04-27 19:34 | 43.30560 | -2.92284 | 132 ft | 94 kts | 114° |
| 2026-04-27 19:34 | 43.30306 | -2.91584 | 120 ft | 70 kts | 116° |
| 2026-04-27 19:34 | 43.30133 | -2.91103 | 123 ft | 39 kts | 112° |
| 2026-04-27 19:34 | 43.30089 | -2.90827 | 122 ft | 19 kts | 98° |
| 2026-04-27 19:35 | 43.30079 | -2.90699 | 124 ft | 12 kts | 95° |
| 2026-04-27 19:35 | 43.30121 | -2.90621 | 124 ft | 11 kts | 347° |
| 2026-04-27 19:35 | 43.30181 | -2.90745 | 121 ft | 21 kts | 296° |
| 2026-04-27 19:35 | 43.30256 | -2.90952 | 121 ft | 28 kts | 296° |
| 2026-04-27 19:36 | 43.30350 | -2.91204 | 123 ft | 27 kts | 296° |
| 2026-04-27 19:36 | 43.30428 | -2.91422 | 122 ft | 27 kts | 296° |
| 2026-04-27 19:36 | 43.30523 | -2.91678 | 123 ft | 31 kts | 296° |
| 2026-04-27 19:36 | 43.30627 | -2.91962 | 124 ft | 30 kts | 294° |
| 2026-04-27 19:37 | 43.30722 | -2.92220 | 122 ft | 20 kts | 296° |
| 2026-04-27 19:37 | 43.30761 | -2.92335 | 123 ft | 11 kts | 295° |
| 2026-04-27 19:37 | 43.30788 | -2.92412 | 124 ft | 6 kts | 295° |
| 2026-04-27 19:37 | 43.30803 | -2.92469 | 122 ft | 5 kts | 266° |
| 2026-04-27 19:38 | 43.30803 | -2.92472 | 122 ft | 0 kts | 257° |
| 2026-04-27 19:38 | 43.30802 | -2.92472 | 122 ft | 0 kts | 257° |
| 2026-04-27 19:38 | 43.30780 | -2.92500 | 124 ft | 11 kts | 200° |
| 2026-04-27 19:39 | 43.30674 | -2.92466 | 120 ft | 16 kts | 164° |
| 2026-04-27 19:39 | 43.30604 | -2.92481 | 123 ft | 13 kts | 262° |
| 2026-04-27 19:39 | 43.30562 | -2.92633 | 124 ft | 21 kts | 233° |
| 2026-04-27 19:39 | 43.30474 | -2.92771 | 124 ft | 21 kts | 229° |
| 2026-04-27 19:40 | 43.30386 | -2.92906 | 123 ft | 21 kts | 228° |
| 2026-04-27 19:40 | 43.30308 | -2.93034 | 123 ft | 9 kts | 216° |
| 2026-04-27 19:40 | 43.30230 | -2.93018 | 123 ft | 12 kts | 181° |
| 2026-04-27 19:40 | 43.30141 | -2.93035 | 121 ft | 13 kts | 187° |
| 2026-04-27 19:41 | 43.30078 | -2.93045 | 123 ft | 3 kts | 189° |
| 2026-04-27 19:41 | 43.30074 | -2.93090 | 123 ft | 2 kts | 332° |
| 2026-04-27 19:41 | 43.30079 | -2.93090 | 121 ft | 0 kts | 11° |